sensor_id;sensor_type;location;lat;lon;timestamp;temperature;humidity
3402;DHT22;1714;49.756;8.610;2023-01-25T04:30:49;1.40;94.90
3402;DHT22;1714;49.756;8.610;2023-01-25T04:41:27;1.40;95.60
3402;DHT22;1714;49.756;8.610;2023-01-25T04:52:05;1.40;95.20
3402;DHT22;1714;49.756;8.610;2023-01-25T05:02:41;1.30;93.90
3402;DHT22;1714;49.756;8.610;2023-01-25T05:13:17;1.30;94.30
3402;DHT22;1714;49.756;8.610;2023-01-25T05:23:54;1.20;95.50
3402;DHT22;1714;49.756;8.610;2023-01-25T05:34:31;1.20;95.40
3402;DHT22;1714;49.756;8.610;2023-01-25T05:45:08;1.20;95.50
3402;DHT22;1714;49.756;8.610;2023-01-25T05:55:47;1.00;95.00
3402;DHT22;1714;49.756;8.610;2023-01-25T06:06:24;1.00;95.00
3402;DHT22;1714;49.756;8.610;2023-01-25T06:17:00;1.10;92.60
3402;DHT22;1714;49.756;8.610;2023-01-25T06:28:04;1.10;95.50
3402;DHT22;1714;49.756;8.610;2023-01-25T06:38:41;1.20;93.90
3402;DHT22;1714;49.756;8.610;2023-01-25T06:49:16;1.10;97.30
3402;DHT22;1714;49.756;8.610;2023-01-25T06:59:52;1.20;95.50
3402;DHT22;1714;49.756;8.610;2023-01-25T07:10:27;1.10;99.90
3402;DHT22;1714;49.756;8.610;2023-01-25T07:21:04;1.20;99.40
3402;DHT22;1714;49.756;8.610;2023-01-25T07:31:41;1.20;99.90
3402;DHT22;1714;49.756;8.610;2023-01-25T07:42:17;1.20;99.90
3402;DHT22;1714;49.756;8.610;2023-01-25T07:53:00;1.00;96.90
3402;DHT22;1714;49.756;8.610;2023-01-25T08:03:35;1.00;93.30
3402;DHT22;1714;49.756;8.610;2023-01-25T08:14:11;1.10;91.10
3402;DHT22;1714;49.756;8.610;2023-01-25T08:24:47;1.10;93.10
3402;DHT22;1714;49.756;8.610;2023-01-25T08:35:22;1.10;95.50
3402;DHT22;1714;49.756;8.610;2023-01-25T08:45:58;1.20;94.90
3402;DHT22;1714;49.756;8.610;2023-01-25T08:56:36;1.20;94.20
3402;DHT22;1714;49.756;8.610;2023-01-25T09:07:12;1.10;90.00
3402;DHT22;1714;49.756;8.610;2023-01-25T09:17:52;1.00;91.30
3402;DHT22;1714;49.756;8.610;2023-01-25T09:28:29;1.10;93.30
3402;DHT22;1714;49.756;8.610;2023-01-25T09:39:05;1.00;92.30
3402;DHT22;1714;49.756;8.610;2023-01-25T10:00:23;1.20;94.20
3402;DHT22;1714;49.756;8.610;2023-01-25T10:11:18;1.10;97.10
3402;DHT22;1714;49.756;8.610;2023-01-25T10:33:11;1.40;91.10
3402;DHT22;1714;49.756;8.610;2023-01-25T10:43:47;1.50;90.30
3402;DHT22;1714;49.756;8.610;2023-01-25T10:54:43;1.30;88.90
3402;DHT22;1714;49.756;8.610;2023-01-25T11:16:24;1.40;87.70
3402;DHT22;1714;49.756;8.610;2023-01-25T11:27:23;1.20;88.40
3402;DHT22;1714;49.756;8.610;2023-01-25T11:38:13;1.10;90.10
3402;DHT22;1714;49.756;8.610;2023-01-25T12:10:51;1.30;83.00
3402;DHT22;1714;49.756;8.610;2023-01-25T12:21:56;1.20;90.00
3402;DHT22;1714;49.756;8.610;2023-01-25T12:32:56;1.20;88.30
3402;DHT22;1714;49.756;8.610;2023-01-25T12:44:15;1.10;85.40
3402;DHT22;1714;49.756;8.610;2023-01-25T12:54:47;1.30;86.00
3402;DHT22;1714;49.756;8.610;2023-01-25T13:16:34;1.30;83.70
3402;DHT22;1714;49.756;8.610;2023-01-25T13:27:25;1.40;84.90
3402;DHT22;1714;49.756;8.610;2023-01-25T13:48:57;1.40;86.30
3402;DHT22;1714;49.756;8.610;2023-01-25T13:59:34;1.30;91.00
3402;DHT22;1714;49.756;8.610;2023-01-25T14:10:22;1.40;83.80
3402;DHT22;1714;49.756;8.610;2023-01-25T14:21:09;1.40;83.40
3402;DHT22;1714;49.756;8.610;2023-01-25T14:31:48;1.40;80.40
3402;DHT22;1714;49.756;8.610;2023-01-25T14:42:25;1.50;79.30
3402;DHT22;1714;49.756;8.610;2023-01-25T14:53:22;1.50;79.10
3402;DHT22;1714;49.756;8.610;2023-01-25T15:03:58;1.30;82.20
3402;DHT22;1714;49.756;8.610;2023-01-25T15:14:49;1.30;84.30
3402;DHT22;1714;49.756;8.610;2023-01-25T15:25:26;1.30;82.50
3402;DHT22;1714;49.756;8.610;2023-01-25T15:36:01;1.40;82.70
3402;DHT22;1714;49.756;8.610;2023-01-25T15:46:39;1.30;84.20
3402;DHT22;1714;49.756;8.610;2023-01-25T15:57:27;1.40;83.30
3402;DHT22;1714;49.756;8.610;2023-01-25T16:08:03;1.40;81.80
3402;DHT22;1714;49.756;8.610;2023-01-25T16:18:39;1.40;82.20
3402;DHT22;1714;49.756;8.610;2023-01-25T16:29:15;1.40;80.80
3402;DHT22;1714;49.756;8.610;2023-01-25T16:39:50;1.30;80.60
3402;DHT22;1714;49.756;8.610;2023-01-25T16:50:28;1.30;74.60
3402;DHT22;1714;49.756;8.610;2023-01-25T17:01:08;1.30;72.30
3402;DHT22;1714;49.756;8.610;2023-01-25T17:11:44;1.30;73.70
3402;DHT22;1714;49.756;8.610;2023-01-25T17:22:20;1.30;71.80
3402;DHT22;1714;49.756;8.610;2023-01-25T17:32:56;1.30;74.20
3402;DHT22;1714;49.756;8.610;2023-01-25T17:43:31;1.30;71.70
3402;DHT22;1714;49.756;8.610;2023-01-25T17:54:09;1.30;71.70
3402;DHT22;1714;49.756;8.610;2023-01-25T18:04:45;1.30;73.00
3402;DHT22;1714;49.756;8.610;2023-01-25T18:15:22;1.30;75.90
3402;DHT22;1714;49.756;8.610;2023-01-25T18:25:57;1.30;78.70
3402;DHT22;1714;49.756;8.610;2023-01-25T18:36:33;1.30;76.00
3402;DHT22;1714;49.756;8.610;2023-01-25T18:47:09;1.20;78.60
3402;DHT22;1714;49.756;8.610;2023-01-25T18:57:48;1.20;78.50
3402;DHT22;1714;49.756;8.610;2023-01-25T19:08:24;1.20;74.30
3402;DHT22;1714;49.756;8.610;2023-01-25T19:19:00;1.20;72.80
3402;DHT22;1714;49.756;8.610;2023-01-25T19:29:35;1.20;75.90
3402;DHT22;1714;49.756;8.610;2023-01-25T19:40:13;1.20;75.40
3402;DHT22;1714;49.756;8.610;2023-01-25T19:50:49;1.10;82.00
3402;DHT22;1714;49.756;8.610;2023-01-25T20:01:26;1.10;81.30
3402;DHT22;1714;49.756;8.610;2023-01-25T20:12:04;1.10;77.10
3402;DHT22;1714;49.756;8.610;2023-01-25T20:22:42;1.20;79.40
3402;DHT22;1714;49.756;8.610;2023-01-25T20:33:17;1.20;80.70
3402;DHT22;1714;49.756;8.610;2023-01-25T20:43:57;1.10;78.70
3402;DHT22;1714;49.756;8.610;2023-01-25T20:54:38;1.10;82.50
3402;DHT22;1714;49.756;8.610;2023-01-25T21:05:16;1.10;83.10
3402;DHT22;1714;49.756;8.610;2023-01-25T21:16:15;1.00;86.80
3402;DHT22;1714;49.756;8.610;2023-01-25T21:26:52;1.00;90.00
3402;DHT22;1714;49.756;8.610;2023-01-25T21:37:28;0.90;90.90
3402;DHT22;1714;49.756;8.610;2023-01-25T21:48:03;1.00;88.40
3402;DHT22;1714;49.756;8.610;2023-01-25T21:58:39;0.90;89.00
3402;DHT22;1714;49.756;8.610;2023-01-25T22:09:15;0.90;89.50
3402;DHT22;1714;49.756;8.610;2023-01-25T22:19:51;0.90;89.60
